sensor_id;sensor_type;location;lat;lon;timestamp;pressure;altitude;pressure_sealevel;temperature;humidity
79077;BME280;68477;42.698;23.342;2023-03-14T00:01:15;95606.06;;;4.04;42.68
79077;BME280;68477;42.698;23.342;2023-03-14T00:03:41;95601.28;;;3.89;42.79
79077;BME280;68477;42.698;23.342;2023-03-14T00:06:07;95599.34;;;4.02;43.65
79077;BME280;68477;42.698;23.342;2023-03-14T00:08:33;95586.13;;;3.94;44.12
79077;BME280;68477;42.698;23.342;2023-03-14T00:11:10;95593.53;;;3.66;44.13
79077;BME280;68477;42.698;23.342;2023-03-14T00:13:36;95593.53;;;3.66;44.48
79077;BME280;68477;42.698;23.342;2023-03-14T00:16:07;95585.34;;;3.71;45.26
79077;BME280;68477;42.698;23.342;2023-03-14T00:18:35;95579.72;;;3.55;44.92
79077;BME280;68477;42.698;23.342;2023-03-14T00:21:01;95575.69;;;3.50;45.18
79077;BME280;68477;42.698;23.342;2023-03-14T00:23:29;95573.97;;;3.40;44.71
79077;BME280;68477;42.698;23.342;2023-03-14T00:26:02;95570.53;;;3.39;45.09
79077;BME280;68477;42.698;23.342;2023-03-14T00:28:28;95562.50;;;3.42;46.35
79077;BME280;68477;42.698;23.342;2023-03-14T00:30:54;95566.06;;;3.41;44.65
79077;BME280;68477;42.698;23.342;2023-03-14T00:33:20;95559.66;;;3.34;45.96
79077;BME280;68477;42.698;23.342;2023-03-14T00:35:57;95555.41;;;3.44;46.33
79077;BME280;68477;42.698;23.342;2023-03-14T00:38:23;95554.31;;;3.47;46.47
79077;BME280;68477;42.698;23.342;2023-03-14T00:40:50;95552.94;;;3.32;45.44
79077;BME280;68477;42.698;23.342;2023-03-14T00:43:16;95553.66;;;3.34;45.80
79077;BME280;68477;42.698;23.342;2023-03-14T00:45:41;95548.69;;;3.31;46.98
79077;BME280;68477;42.698;23.342;2023-03-14T00:48:07;95544.53;;;3.28;47.27
79077;BME280;68477;42.698;23.342;2023-03-14T00:50:32;95546.94;;;3.31;46.29
79077;BME280;68477;42.698;23.342;2023-03-14T00:52:58;95542.69;;;3.19;47.26
79077;BME280;68477;42.698;23.342;2023-03-14T00:55:24;95549.66;;;3.18;47.26
79077;BME280;68477;42.698;23.342;2023-03-14T00:57:50;95541.03;;;3.18;47.73
79077;BME280;68477;42.698;23.342;2023-03-14T01:00:15;95539.97;;;3.09;47.55
79077;BME280;68477;42.698;23.342;2023-03-14T01:02:41;95538.91;;;3.12;46.52
79077;BME280;68477;42.698;23.342;2023-03-14T01:05:06;95537.97;;;3.02;47.73
79077;BME280;68477;42.698;23.342;2023-03-14T01:07:32;95527.00;;;2.98;48.88
79077;BME280;68477;42.698;23.342;2023-03-14T01:09:58;95531.81;;;3.03;48.68
79077;BME280;68477;42.698;23.342;2023-03-14T01:12:24;95534.66;;;3.00;48.36
79077;BME280;68477;42.698;23.342;2023-03-14T01:14:49;95526.63;;;2.91;48.47
79077;BME280;68477;42.698;23.342;2023-03-14T01:17:15;95520.38;;;2.94;48.19
79077;BME280;68477;42.698;23.342;2023-03-14T01:19:40;95521.94;;;2.97;48.21
79077;BME280;68477;42.698;23.342;2023-03-14T01:22:05;95509.91;;;2.84;49.78
79077;BME280;68477;42.698;23.342;2023-03-14T01:24:31;95507.88;;;2.88;48.12
79077;BME280;68477;42.698;23.342;2023-03-14T01:26:56;95512.81;;;2.91;48.23
79077;BME280;68477;42.698;23.342;2023-03-14T01:29:22;95511.53;;;2.97;48.61
79077;BME280;68477;42.698;23.342;2023-03-14T01:31:47;95508.44;;;3.03;49.84
79077;BME280;68477;42.698;23.342;2023-03-14T01:34:13;95512.00;;;3.02;49.26
79077;BME280;68477;42.698;23.342;2023-03-14T01:36:38;95500.47;;;3.27;48.12
79077;BME280;68477;42.698;23.342;2023-03-14T01:39:04;95502.75;;;3.20;48.00
79077;BME280;68477;42.698;23.342;2023-03-14T01:41:31;95502.88;;;3.18;48.63
79077;BME280;68477;42.698;23.342;2023-03-14T01:43:57;95498.25;;;3.33;48.77
79077;BME280;68477;42.698;23.342;2023-03-14T01:46:43;95487.75;;;3.24;48.58
79077;BME280;68477;42.698;23.342;2023-03-14T01:49:23;95484.41;;;3.33;49.98
79077;BME280;68477;42.698;23.342;2023-03-14T01:56:57;95489.94;;;3.39;49.47
79077;BME280;68477;42.698;23.342;2023-03-14T01:59:29;95483.00;;;3.40;48.61
79077;BME280;68477;42.698;23.342;2023-03-14T02:01:55;95482.25;;;3.38;48.15
79077;BME280;68477;42.698;23.342;2023-03-14T02:04:21;95479.09;;;3.34;48.15
79077;BME280;68477;42.698;23.342;2023-03-14T02:06:52;95491.63;;;3.40;49.66
79077;BME280;68477;42.698;23.342;2023-03-14T02:09:21;95486.00;;;3.13;50.46
79077;BME280;68477;42.698;23.342;2023-03-14T02:11:47;95478.88;;;3.26;48.90
79077;BME280;68477;42.698;23.342;2023-03-14T02:14:22;95486.13;;;3.00;48.63
79077;BME280;68477;42.698;23.342;2023-03-14T02:16:50;95479.69;;;2.72;49.18
79077;BME280;68477;42.698;23.342;2023-03-14T02:19:24;95466.69;;;2.50;50.12
79077;BME280;68477;42.698;23.342;2023-03-14T02:22:05;95472.09;;;2.36;50.92
79077;BME280;68477;42.698;23.342;2023-03-14T02:27:25;95474.81;;;2.68;50.75
79077;BME280;68477;42.698;23.342;2023-03-14T02:29:55;95473.03;;;2.90;50.00
79077;BME280;68477;42.698;23.342;2023-03-14T02:32:23;95481.09;;;2.76;50.19
79077;BME280;68477;42.698;23.342;2023-03-14T02:34:53;95470.22;;;2.49;51.98
79077;BME280;68477;42.698;23.342;2023-03-14T02:37:22;95473.53;;;2.62;51.67
79077;BME280;68477;42.698;23.342;2023-03-14T02:39:49;95482.72;;;2.77;51.27
79077;BME280;68477;42.698;23.342;2023-03-14T02:42:14;95488.38;;;2.82;50.95
79077;BME280;68477;42.698;23.342;2023-03-14T02:47:37;95486.63;;;2.27;53.22
79077;BME280;68477;42.698;23.342;2023-03-14T02:50:06;95482.50;;;2.47;51.86
79077;BME280;68477;42.698;23.342;2023-03-14T02:52:33;95489.41;;;2.13;53.65
79077;BME280;68477;42.698;23.342;2023-03-14T02:54:58;95493.13;;;2.44;52.20
79077;BME280;68477;42.698;23.342;2023-03-14T02:57:23;95489.25;;;2.60;52.88
79077;BME280;68477;42.698;23.342;2023-03-14T02:59:49;95488.63;;;2.34;53.54
79077;BME280;68477;42.698;23.342;2023-03-14T03:02:15;95493.44;;;2.17;53.37
79077;BME280;68477;42.698;23.342;2023-03-14T03:04:40;95491.78;;;1.81;54.96
79077;BME280;68477;42.698;23.342;2023-03-14T03:07:06;95490.38;;;1.77;56.00
79077;BME280;68477;42.698;23.342;2023-03-14T03:09:31;95495.03;;;1.60;56.68
79077;BME280;68477;42.698;23.342;2023-03-14T03:11:56;95500.66;;;1.54;57.27
79077;BME280;68477;42.698;23.342;2023-03-14T03:14:22;95496.38;;;1.42;56.00
79077;BME280;68477;42.698;23.342;2023-03-14T03:16:49;95489.25;;;1.33;57.02
79077;BME280;68477;42.698;23.342;2023-03-14T03:19:16;95492.59;;;1.70;56.06
79077;BME280;68477;42.698;23.342;2023-03-14T03:21:43;95485.09;;;1.89;54.74
79077;BME280;68477;42.698;23.342;2023-03-14T03:24:08;95491.22;;;1.53;56.67
79077;BME280;68477;42.698;23.342;2023-03-14T03:26:36;95490.72;;;1.72;56.37
79077;BME280;68477;42.698;23.342;2023-03-14T03:29:02;95481.56;;;1.55;57.17
79077;BME280;68477;42.698;23.342;2023-03-14T03:31:27;95491.28;;;1.16;59.17
79077;BME280;68477;42.698;23.342;2023-03-14T03:33:53;95483.06;;;1.46;57.02
79077;BME280;68477;42.698;23.342;2023-03-14T03:36:23;95489.41;;;1.42;57.29
79077;BME280;68477;42.698;23.342;2023-03-14T03:38:48;95483.06;;;1.23;58.74
79077;BME280;68477;42.698;23.342;2023-03-14T03:41:14;95485.00;;;1.32;58.05
79077;BME280;68477;42.698;23.342;2023-03-14T03:43:39;95482.47;;;1.43;58.81
79077;BME280;68477;42.698;23.342;2023-03-14T03:46:06;95486.78;;;1.31;58.14
79077;BME280;68477;42.698;23.342;2023-03-14T03:48:32;95496.38;;;1.42;57.07
79077;BME280;68477;42.698;23.342;2023-03-14T03:50:58;95495.53;;;1.65;56.35
79077;BME280;68477;42.698;23.342;2023-03-14T03:53:24;95499.41;;;1.60;56.47
79077;BME280;68477;42.698;23.342;2023-03-14T03:55:50;95500.34;;;1.59;57.43
79077;BME280;68477;42.698;23.342;2023-03-14T03:58:16;95500.84;;;1.40;57.69
79077;BME280;68477;42.698;23.342;2023-03-14T04:00:42;95497.03;;;1.33;59.06
79077;BME280;68477;42.698;23.342;2023-03-14T04:03:07;95489.69;;;0.90;61.32
79077;BME280;68477;42.698;23.342;2023-03-14T04:05:33;95493.81;;;0.69;60.33
79077;BME280;68477;42.698;23.342;2023-03-14T04:07:59;95500.41;;;0.73;60.95
79077;BME280;68477;42.698;23.342;2023-03-14T04:10:25;95498.28;;;0.91;60.81
79077;BME280;68477;42.698;23.342;2023-03-14T04:12:50;95499.88;;;1.17;58.86
79077;BME280;68477;42.698;23.342;2023-03-14T04:15:16;95489.69;;;1.27;58.39
79077;BME280;68477;42.698;23.342;2023-03-14T04:17:41;95487.13;;;1.27;59.40
79077;BME280;68477;42.698;23.342;2023-03-14T04:20:07;95494.34;;;0.61;61.72
79077;BME280;68477;42.698;23.342;2023-03-14T04:22:36;95481.09;;;0.53;60.92
79077;BME280;68477;42.698;23.342;2023-03-14T04:25:01;95481.88;;;0.66;61.09
79077;BME280;68477;42.698;23.342;2023-03-14T04:27:28;95468.50;;;0.85;60.29
79077;BME280;68477;42.698;23.342;2023-03-14T04:29:54;95468.53;;;1.09;59.83
79077;BME280;68477;42.698;23.342;2023-03-14T04:32:19;95478.16;;;1.31;59.04
79077;BME280;68477;42.698;23.342;2023-03-14T04:34:45;95478.50;;;1.02;60.15
79077;BME280;68477;42.698;23.342;2023-03-14T04:37:10;95468.59;;;0.83;60.56
79077;BME280;68477;42.698;23.342;2023-03-14T04:39:36;95463.06;;;0.64;60.92
79077;BME280;68477;42.698;23.342;2023-03-14T04:42:01;95459.84;;;0.73;60.27
79077;BME280;68477;42.698;23.342;2023-03-14T04:44:27;95458.59;;;0.66;60.25
79077;BME280;68477;42.698;23.342;2023-03-14T04:46:52;95453.16;;;0.58;61.15
79077;BME280;68477;42.698;23.342;2023-03-14T04:49:18;95454.63;;;0.86;59.83
79077;BME280;68477;42.698;23.342;2023-03-14T04:51:44;95452.63;;;0.90;59.80
79077;BME280;68477;42.698;23.342;2023-03-14T04:54:09;95450.72;;;0.80;59.90
79077;BME280;68477;42.698;23.342;2023-03-14T04:56:34;95446.16;;;1.08;59.62
79077;BME280;68477;42.698;23.342;2023-03-14T04:59:00;95444.44;;;1.20;58.39
79077;BME280;68477;42.698;23.342;2023-03-14T05:01:25;95450.91;;;1.38;58.20
79077;BME280;68477;42.698;23.342;2023-03-14T05:03:51;95447.25;;;1.40;58.24
79077;BME280;68477;42.698;23.342;2023-03-14T05:06:16;95451.31;;;1.32;57.64
79077;BME280;68477;42.698;23.342;2023-03-14T05:08:42;95445.66;;;1.27;58.16
79077;BME280;68477;42.698;23.342;2023-03-14T05:11:10;95447.56;;;1.12;58.86
79077;BME280;68477;42.698;23.342;2023-03-14T05:13:35;95446.31;;;1.17;60.03
79077;BME280;68477;42.698;23.342;2023-03-14T05:16:08;95442.50;;;1.34;58.37
79077;BME280;68477;42.698;23.342;2023-03-14T05:18:33;95445.38;;;1.19;58.91
79077;BME280;68477;42.698;23.342;2023-03-14T05:21:00;95448.28;;;1.62;58.37
79077;BME280;68477;42.698;23.342;2023-03-14T05:23:26;95444.69;;;1.87;57.51
79077;BME280;68477;42.698;23.342;2023-03-14T05:25:52;95445.88;;;1.94;56.09
79077;BME280;68477;42.698;23.342;2023-03-14T05:28:18;95436.47;;;2.38;55.36
79077;BME280;68477;42.698;23.342;2023-03-14T05:30:43;95437.78;;;2.43;54.73
79077;BME280;68477;42.698;23.342;2023-03-14T05:33:09;95439.31;;;2.57;55.86
79077;BME280;68477;42.698;23.342;2023-03-14T05:35:34;95444.84;;;2.86;54.07
79077;BME280;68477;42.698;23.342;2023-03-14T05:37:59;95439.31;;;2.68;54.88
79077;BME280;68477;42.698;23.342;2023-03-14T05:40:25;95437.16;;;2.84;54.63
79077;BME280;68477;42.698;23.342;2023-03-14T05:42:52;95447.72;;;2.60;55.05
79077;BME280;68477;42.698;23.342;2023-03-14T05:45:18;95444.97;;;2.73;54.38
79077;BME280;68477;42.698;23.342;2023-03-14T05:47:43;95434.00;;;3.24;53.29
79077;BME280;68477;42.698;23.342;2023-03-14T05:50:09;95438.69;;;3.62;52.95
79077;BME280;68477;42.698;23.342;2023-03-14T05:52:35;95441.94;;;3.75;51.93
79077;BME280;68477;42.698;23.342;2023-03-14T05:55:01;95451.91;;;3.91;52.18
79077;BME280;68477;42.698;23.342;2023-03-14T05:57:26;95434.44;;;4.24;49.72
79077;BME280;68477;42.698;23.342;2023-03-14T05:59:52;95442.13;;;2.87;54.46
79077;BME280;68477;42.698;23.342;2023-03-14T06:02:17;95448.25;;;2.86;53.27
79077;BME280;68477;42.698;23.342;2023-03-14T06:04:43;95437.63;;;3.86;51.67
79077;BME280;68477;42.698;23.342;2023-03-14T06:07:08;95441.50;;;4.12;50.29
79077;BME280;68477;42.698;23.342;2023-03-14T06:09:35;95440.03;;;3.77;52.09
79077;BME280;68477;42.698;23.342;2023-03-14T06:12:00;95438.91;;;3.38;52.07
79077;BME280;68477;42.698;23.342;2023-03-14T06:14:26;95431.81;;;3.61;51.78
79077;BME280;68477;42.698;23.342;2023-03-14T06:16:51;95428.34;;;3.93;52.02
79077;BME280;68477;42.698;23.342;2023-03-14T06:19:17;95426.72;;;4.43;49.29
79077;BME280;68477;42.698;23.342;2023-03-14T06:21:43;95437.75;;;5.06;48.31
79077;BME280;68477;42.698;23.342;2023-03-14T06:24:08;95445.84;;;5.03;47.60
79077;BME280;68477;42.698;23.342;2023-03-14T06:26:34;95438.47;;;5.18;47.49
79077;BME280;68477;42.698;23.342;2023-03-14T06:28:59;95446.41;;;5.07;47.41
79077;BME280;68477;42.698;23.342;2023-03-14T06:31:29;95440.50;;;5.05;47.22
79077;BME280;68477;42.698;23.342;2023-03-14T06:33:55;95444.13;;;5.81;46.36
79077;BME280;68477;42.698;23.342;2023-03-14T06:36:21;95431.38;;;5.97;44.39
79077;BME280;68477;42.698;23.342;2023-03-14T06:38:46;95435.75;;;6.06;44.88
79077;BME280;68477;42.698;23.342;2023-03-14T06:41:11;95439.66;;;6.49;43.48
79077;BME280;68477;42.698;23.342;2023-03-14T06:43:37;95431.31;;;6.73;42.63
79077;BME280;68477;42.698;23.342;2023-03-14T06:46:02;95423.84;;;6.41;42.53
79077;BME280;68477;42.698;23.342;2023-03-14T06:48:28;95424.66;;;5.95;43.57
79077;BME280;68477;42.698;23.342;2023-03-14T06:50:54;95425.53;;;6.69;42.88
79077;BME280;68477;42.698;23.342;2023-03-14T06:53:19;95412.00;;;6.84;42.02
79077;BME280;68477;42.698;23.342;2023-03-14T06:55:45;95408.00;;;5.86;46.44
79077;BME280;68477;42.698;23.342;2023-03-14T06:58:11;95412.47;;;6.23;46.44
79077;BME280;68477;42.698;23.342;2023-03-14T07:00:36;95404.66;;;6.87;43.05
79077;BME280;68477;42.698;23.342;2023-03-14T07:03:02;95406.66;;;6.48;43.64
79077;BME280;68477;42.698;23.342;2023-03-14T07:05:28;95401.16;;;6.41;44.91
79077;BME280;68477;42.698;23.342;2023-03-14T07:07:53;95399.28;;;6.89;42.51
79077;BME280;68477;42.698;23.342;2023-03-14T07:10:19;95400.50;;;6.67;42.81
79077;BME280;68477;42.698;23.342;2023-03-14T07:12:44;95397.56;;;6.80;43.21
79077;BME280;68477;42.698;23.342;2023-03-14T07:15:10;95383.16;;;7.39;40.77
79077;BME280;68477;42.698;23.342;2023-03-14T07:17:35;95391.50;;;7.78;41.36
79077;BME280;68477;42.698;23.342;2023-03-14T07:20:01;95399.63;;;7.93;40.00
79077;BME280;68477;42.698;23.342;2023-03-14T07:22:26;95397.88;;;7.75;39.61
79077;BME280;68477;42.698;23.342;2023-03-14T07:24:52;95397.03;;;7.57;41.88
79077;BME280;68477;42.698;23.342;2023-03-14T07:27:17;95392.84;;;7.46;38.11
79077;BME280;68477;42.698;23.342;2023-03-14T07:29:43;95391.53;;;7.60;38.36
79077;BME280;68477;42.698;23.342;2023-03-14T07:32:08;95393.41;;;6.59;41.32
79077;BME280;68477;42.698;23.342;2023-03-14T07:34:34;95390.56;;;6.80;41.53
79077;BME280;68477;42.698;23.342;2023-03-14T07:37:00;95385.78;;;7.39;40.60
79077;BME280;68477;42.698;23.342;2023-03-14T07:39:25;95378.38;;;8.22;38.31
79077;BME280;68477;42.698;23.342;2023-03-14T07:41:51;95378.47;;;7.86;39.42
79077;BME280;68477;42.698;23.342;2023-03-14T07:44:16;95378.28;;;8.57;39.00
79077;BME280;68477;42.698;23.342;2023-03-14T07:46:41;95366.25;;;8.81;36.51
79077;BME280;68477;42.698;23.342;2023-03-14T07:49:07;95367.25;;;8.20;36.67
79077;BME280;68477;42.698;23.342;2023-03-14T07:51:32;95370.22;;;9.51;35.79
79077;BME280;68477;42.698;23.342;2023-03-14T07:53:58;95367.75;;;9.58;34.10
79077;BME280;68477;42.698;23.342;2023-03-14T07:56:23;95369.81;;;9.22;33.91
79077;BME280;68477;42.698;23.342;2023-03-14T07:58:49;95366.25;;;8.81;35.71
79077;BME280;68477;42.698;23.342;2023-03-14T08:01:14;95364.78;;;8.44;36.26
79077;BME280;68477;42.698;23.342;2023-03-14T08:03:39;95363.53;;;8.56;36.54
79077;BME280;68477;42.698;23.342;2023-03-14T08:06:05;95360.53;;;9.52;34.68
79077;BME280;68477;42.698;23.342;2023-03-14T08:08:31;95361.00;;;10.12;32.83
79077;BME280;68477;42.698;23.342;2023-03-14T08:11:02;95364.44;;;10.29;31.93
79077;BME280;68477;42.698;23.342;2023-03-14T08:13:28;95364.44;;;9.40;33.27
79077;BME280;68477;42.698;23.342;2023-03-14T08:15:54;95353.91;;;9.23;32.37
79077;BME280;68477;42.698;23.342;2023-03-14T08:18:19;95350.88;;;10.65;31.26
79077;BME280;68477;42.698;23.342;2023-03-14T08:20:44;95352.34;;;11.29;29.36
79077;BME280;68477;42.698;23.342;2023-03-14T08:23:10;95357.75;;;11.05;30.25
79077;BME280;68477;42.698;23.342;2023-03-14T08:25:35;95351.19;;;11.32;29.80
79077;BME280;68477;42.698;23.342;2023-03-14T08:28:02;95350.78;;;10.89;30.18
79077;BME280;68477;42.698;23.342;2023-03-14T08:30:29;95351.53;;;11.75;30.00
79077;BME280;68477;42.698;23.342;2023-03-14T08:32:57;95342.19;;;11.26;30.29
79077;BME280;68477;42.698;23.342;2023-03-14T08:35:23;95346.28;;;11.75;29.21
79077;BME280;68477;42.698;23.342;2023-03-14T08:37:49;95340.56;;;12.09;29.13
79077;BME280;68477;42.698;23.342;2023-03-14T08:40:14;95343.03;;;12.10;29.52
79077;BME280;68477;42.698;23.342;2023-03-14T08:42:42;95327.31;;;11.11;29.63
79077;BME280;68477;42.698;23.342;2023-03-14T08:45:10;95330.59;;;11.13;30.80
79077;BME280;68477;42.698;23.342;2023-03-14T08:47:35;95327.59;;;11.61;28.85
79077;BME280;68477;42.698;23.342;2023-03-14T08:50:02;95321.53;;;11.84;30.16
79077;BME280;68477;42.698;23.342;2023-03-14T08:52:29;95316.63;;;11.58;28.95
79077;BME280;68477;42.698;23.342;2023-03-14T08:54:56;95315.88;;;12.24;27.99
79077;BME280;68477;42.698;23.342;2023-03-14T08:57:21;95311.75;;;12.81;28.31
79077;BME280;68477;42.698;23.342;2023-03-14T08:59:47;95301.47;;;11.37;28.11
79077;BME280;68477;42.698;23.342;2023-03-14T09:02:12;95301.75;;;12.76;26.90
79077;BME280;68477;42.698;23.342;2023-03-14T09:04:38;95290.56;;;12.74;26.42
79077;BME280;68477;42.698;23.342;2023-03-14T09:07:03;95288.56;;;12.32;27.36
79077;BME280;68477;42.698;23.342;2023-03-14T09:09:29;95279.50;;;11.68;27.50
79077;BME280;68477;42.698;23.342;2023-03-14T09:11:56;95279.72;;;12.84;27.22
79077;BME280;68477;42.698;23.342;2023-03-14T09:14:21;95279.50;;;12.05;27.23
79077;BME280;68477;42.698;23.342;2023-03-14T09:16:48;95270.63;;;12.72;26.79
79077;BME280;68477;42.698;23.342;2023-03-14T09:19:13;95267.84;;;12.59;28.25
79077;BME280;68477;42.698;23.342;2023-03-14T09:21:40;95264.28;;;12.22;28.16
79077;BME280;68477;42.698;23.342;2023-03-14T09:24:06;95252.69;;;13.39;27.54
79077;BME280;68477;42.698;23.342;2023-03-14T09:26:31;95246.53;;;14.44;26.97
79077;BME280;68477;42.698;23.342;2023-03-14T09:28:57;95243.88;;;13.32;26.66
79077;BME280;68477;42.698;23.342;2023-03-14T09:31:22;95242.38;;;13.23;27.24
79077;BME280;68477;42.698;23.342;2023-03-14T09:33:48;95237.41;;;13.35;26.70
79077;BME280;68477;42.698;23.342;2023-03-14T09:36:13;95228.28;;;13.87;26.21
79077;BME280;68477;42.698;23.342;2023-03-14T09:38:39;95232.31;;;13.83;26.47
79077;BME280;68477;42.698;23.342;2023-03-14T09:41:14;95218.31;;;13.61;25.96
79077;BME280;68477;42.698;23.342;2023-03-14T09:43:42;95219.47;;;13.80;25.72
79077;BME280;68477;42.698;23.342;2023-03-14T09:46:09;95216.13;;;13.64;25.75
79077;BME280;68477;42.698;23.342;2023-03-14T09:48:36;95200.41;;;13.84;25.06
79077;BME280;68477;42.698;23.342;2023-03-14T09:51:05;95202.53;;;14.43;24.25
79077;BME280;68477;42.698;23.342;2023-03-14T09:53:41;95190.91;;;14.92;24.33
79077;BME280;68477;42.698;23.342;2023-03-14T09:58:51;95187.69;;;15.03;23.34
79077;BME280;68477;42.698;23.342;2023-03-14T10:01:22;95183.88;;;14.51;24.47
79077;BME280;68477;42.698;23.342;2023-03-14T10:03:52;95174.31;;;14.50;24.17
79077;BME280;68477;42.698;23.342;2023-03-14T10:06:25;95167.59;;;14.13;25.10
79077;BME280;68477;42.698;23.342;2023-03-14T10:08:51;95167.81;;;14.60;25.59
79077;BME280;68477;42.698;23.342;2023-03-14T10:11:18;95162.38;;;14.74;25.44
79077;BME280;68477;42.698;23.342;2023-03-14T10:14:03;95158.69;;;14.82;25.86
79077;BME280;68477;42.698;23.342;2023-03-14T10:16:31;95156.50;;;14.85;26.76
79077;BME280;68477;42.698;23.342;2023-03-14T10:19:10;95148.34;;;14.33;25.95
79077;BME280;68477;42.698;23.342;2023-03-14T10:21:54;95146.88;;;14.71;25.90
79077;BME280;68477;42.698;23.342;2023-03-14T10:24:27;95133.84;;;15.95;23.91
79077;BME280;68477;42.698;23.342;2023-03-14T10:27:08;95123.09;;;14.98;25.13
79077;BME280;68477;42.698;23.342;2023-03-14T10:29:56;95113.13;;;15.06;25.62
79077;BME280;68477;42.698;23.342;2023-03-14T10:32:23;95112.09;;;15.14;25.38
79077;BME280;68477;42.698;23.342;2023-03-14T10:37:59;95104.94;;;15.54;25.03
79077;BME280;68477;42.698;23.342;2023-03-14T10:40:47;95090.84;;;15.80;24.80
79077;BME280;68477;42.698;23.342;2023-03-14T10:43:17;95089.47;;;15.44;26.35
79077;BME280;68477;42.698;23.342;2023-03-14T10:45:51;95076.81;;;15.47;25.12
79077;BME280;68477;42.698;23.342;2023-03-14T10:48:20;95073.28;;;15.79;26.34
79077;BME280;68477;42.698;23.342;2023-03-14T10:51:09;95063.97;;;15.63;26.50
79077;BME280;68477;42.698;23.342;2023-03-14T10:53:42;95052.41;;;16.41;24.46
79077;BME280;68477;42.698;23.342;2023-03-14T10:56:14;95041.63;;;15.97;24.93
79077;BME280;68477;42.698;23.342;2023-03-14T10:58:43;95041.91;;;15.56;24.70
79077;BME280;68477;42.698;23.342;2023-03-14T11:01:15;95039.03;;;16.22;24.78
79077;BME280;68477;42.698;23.342;2023-03-14T11:03:53;95042.59;;;17.04;25.31
79077;BME280;68477;42.698;23.342;2023-03-14T11:06:26;95024.91;;;17.16;24.46
79077;BME280;68477;42.698;23.342;2023-03-14T11:11:39;95014.53;;;18.25;23.21
79077;BME280;68477;42.698;23.342;2023-03-14T11:17:05;94995.44;;;17.80;22.68
79077;BME280;68477;42.698;23.342;2023-03-14T11:25:33;94968.75;;;17.50;23.19
79077;BME280;68477;42.698;23.342;2023-03-14T11:28:23;94952.38;;;17.71;24.75
79077;BME280;68477;42.698;23.342;2023-03-14T11:31:14;94950.75;;;18.00;22.70
79077;BME280;68477;42.698;23.342;2023-03-14T11:33:56;94952.84;;;18.70;21.68
79077;BME280;68477;42.698;23.342;2023-03-14T11:36:31;94948.41;;;18.22;23.57
79077;BME280;68477;42.698;23.342;2023-03-14T11:38:59;94937.38;;;18.48;22.72
79077;BME280;68477;42.698;23.342;2023-03-14T11:43:58;94926.03;;;20.60;21.20
79077;BME280;68477;42.698;23.342;2023-03-14T11:46:44;94927.81;;;19.17;21.73
79077;BME280;68477;42.698;23.342;2023-03-14T11:49:25;94912.72;;;20.32;19.84
79077;BME280;68477;42.698;23.342;2023-03-14T11:51:56;94907.25;;;20.89;19.31
79077;BME280;68477;42.698;23.342;2023-03-14T11:54:47;94903.72;;;20.38;19.36
79077;BME280;68477;42.698;23.342;2023-03-14T11:57:19;94903.22;;;20.08;20.22
79077;BME280;68477;42.698;23.342;2023-03-14T12:00:02;94895.66;;;21.61;18.18
79077;BME280;68477;42.698;23.342;2023-03-14T12:05:30;94876.13;;;20.32;19.50
79077;BME280;68477;42.698;23.342;2023-03-14T12:10:37;94863.13;;;20.70;19.74
79077;BME280;68477;42.698;23.342;2023-03-14T12:13:04;94860.75;;;21.29;17.61
79077;BME280;68477;42.698;23.342;2023-03-14T12:15:29;94859.28;;;20.82;17.75
79077;BME280;68477;42.698;23.342;2023-03-14T12:17:55;94854.97;;;20.14;20.38
79077;BME280;68477;42.698;23.342;2023-03-14T12:20:24;94852.28;;;20.43;17.76
79077;BME280;68477;42.698;23.342;2023-03-14T12:22:55;94839.13;;;20.24;18.33
79077;BME280;68477;42.698;23.342;2023-03-14T12:25:26;94830.28;;;20.52;17.66
79077;BME280;68477;42.698;23.342;2023-03-14T12:30:32;94823.47;;;20.61;17.78
79077;BME280;68477;42.698;23.342;2023-03-14T12:35:44;94817.28;;;20.61;19.12
79077;BME280;68477;42.698;23.342;2023-03-14T12:38:14;94811.22;;;21.48;18.76
79077;BME280;68477;42.698;23.342;2023-03-14T12:43:46;94804.00;;;20.66;18.24
79077;BME280;68477;42.698;23.342;2023-03-14T12:51:14;94800.13;;;19.33;21.59
79077;BME280;68477;42.698;23.342;2023-03-14T12:53:59;94788.97;;;19.36;19.44
79077;BME280;68477;42.698;23.342;2023-03-14T12:56:45;94784.91;;;19.05;21.20
79077;BME280;68477;42.698;23.342;2023-03-14T12:59:34;94781.94;;;19.30;20.84
79077;BME280;68477;42.698;23.342;2023-03-14T13:04:42;94769.31;;;19.54;20.53
79077;BME280;68477;42.698;23.342;2023-03-14T13:07:33;94764.44;;;19.79;20.24
79077;BME280;68477;42.698;23.342;2023-03-14T13:15:30;94746.47;;;20.25;18.41
79077;BME280;68477;42.698;23.342;2023-03-14T13:18:02;94748.84;;;20.99;18.28
79077;BME280;68477;42.698;23.342;2023-03-14T13:20:33;94750.31;;;20.89;18.10
79077;BME280;68477;42.698;23.342;2023-03-14T13:23:00;94733.44;;;20.45;17.74
79077;BME280;68477;42.698;23.342;2023-03-14T13:25:30;94733.38;;;20.06;18.48
79077;BME280;68477;42.698;23.342;2023-03-14T13:27:57;94724.13;;;20.70;17.84
79077;BME280;68477;42.698;23.342;2023-03-14T13:30:29;94719.09;;;20.51;17.49
79077;BME280;68477;42.698;23.342;2023-03-14T13:33:03;94714.75;;;20.45;16.89
79077;BME280;68477;42.698;23.342;2023-03-14T13:35:39;94707.69;;;20.39;18.42
79077;BME280;68477;42.698;23.342;2023-03-14T13:38:04;94708.09;;;20.48;17.55
79077;BME280;68477;42.698;23.342;2023-03-14T13:40:31;94697.41;;;20.31;17.54
79077;BME280;68477;42.698;23.342;2023-03-14T13:43:14;94694.72;;;19.92;18.52
79077;BME280;68477;42.698;23.342;2023-03-14T13:45:51;94681.53;;;19.86;18.56
79077;BME280;68477;42.698;23.342;2023-03-14T13:48:18;94683.94;;;20.21;18.25
79077;BME280;68477;42.698;23.342;2023-03-14T13:50:46;94670.13;;;20.46;17.60
79077;BME280;68477;42.698;23.342;2023-03-14T13:53:16;94671.09;;;20.40;17.70
79077;BME280;68477;42.698;23.342;2023-03-14T13:55:41;94667.94;;;19.87;18.09
79077;BME280;68477;42.698;23.342;2023-03-14T13:58:28;94666.69;;;19.28;19.27